sensor_id;sensor_type;location;lat;lon;timestamp;pressure;altitude;pressure_sealevel;temperature;humidity
41712;BME280;27399;51.516;13.670;2023-03-04T00:01:46;100935.72;;;3.98;81.57
41712;BME280;27399;51.516;13.670;2023-03-04T00:04:12;100924.38;;;4.01;81.24
41712;BME280;27399;51.516;13.670;2023-03-04T00:06:37;100932.53;;;4.12;81.65
41712;BME280;27399;51.516;13.670;2023-03-04T00:09:03;100939.50;;;4.08;81.31
41712;BME280;27399;51.516;13.670;2023-03-04T00:11:30;100929.47;;;3.95;81.72
41712;BME280;27399;51.516;13.670;2023-03-04T00:13:56;100928.69;;;3.99;81.60
41712;BME280;27399;51.516;13.670;2023-03-04T00:16:22;100927.28;;;4.13;80.89
41712;BME280;27399;51.516;13.670;2023-03-04T00:18:54;100934.06;;;4.02;81.73
41712;BME280;27399;51.516;13.670;2023-03-04T00:21:20;100929.53;;;3.98;81.95
41712;BME280;27399;51.516;13.670;2023-03-04T00:23:46;100919.09;;;4.02;82.23
41712;BME280;27399;51.516;13.670;2023-03-04T00:26:12;100913.75;;;3.99;81.72
41712;BME280;27399;51.516;13.670;2023-03-04T00:28:38;100920.38;;;4.17;82.06
41712;BME280;27399;51.516;13.670;2023-03-04T00:31:05;100911.63;;;4.19;81.62
41712;BME280;27399;51.516;13.670;2023-03-04T00:33:31;100914.66;;;4.00;81.71
41712;BME280;27399;51.516;13.670;2023-03-04T00:35:56;100916.97;;;3.87;81.72
41712;BME280;27399;51.516;13.670;2023-03-04T00:38:22;100906.88;;;4.06;81.87
41712;BME280;27399;51.516;13.670;2023-03-04T00:40:48;100901.81;;;4.15;81.83
41712;BME280;27399;51.516;13.670;2023-03-04T00:43:13;100905.81;;;3.99;81.55
41712;BME280;27399;51.516;13.670;2023-03-04T00:45:39;100897.28;;;3.75;81.61
41712;BME280;27399;51.516;13.670;2023-03-04T00:48:04;100890.09;;;4.04;81.31
41712;BME280;27399;51.516;13.670;2023-03-04T00:50:30;100890.94;;;4.03;81.19
41712;BME280;27399;51.516;13.670;2023-03-04T00:52:56;100879.78;;;4.13;81.24
41712;BME280;27399;51.516;13.670;2023-03-04T00:55:21;100876.25;;;4.13;80.95
41712;BME280;27399;51.516;13.670;2023-03-04T00:57:47;100876.47;;;3.87;81.37
41712;BME280;27399;51.516;13.670;2023-03-04T01:00:13;100859.25;;;4.01;81.33
41712;BME280;27399;51.516;13.670;2023-03-04T01:02:39;100872.97;;;4.22;80.92
41712;BME280;27399;51.516;13.670;2023-03-04T01:05:05;100862.97;;;4.10;80.45
41712;BME280;27399;51.516;13.670;2023-03-04T01:07:31;100854.38;;;4.17;80.40
41712;BME280;27399;51.516;13.670;2023-03-04T01:09:56;100862.22;;;4.15;81.11
41712;BME280;27399;51.516;13.670;2023-03-04T01:12:22;100863.88;;;4.10;80.64
41712;BME280;27399;51.516;13.670;2023-03-04T01:14:48;100860.94;;;3.99;81.17
41712;BME280;27399;51.516;13.670;2023-03-04T01:17:13;100857.44;;;3.99;80.65
41712;BME280;27399;51.516;13.670;2023-03-04T01:19:39;100848.22;;;3.83;81.63
41712;BME280;27399;51.516;13.670;2023-03-04T01:22:07;100845.75;;;3.89;81.24
41712;BME280;27399;51.516;13.670;2023-03-04T01:24:35;100818.66;;;3.96;80.35
41712;BME280;27399;51.516;13.670;2023-03-04T01:27:00;100838.34;;;4.11;80.55
41712;BME280;27399;51.516;13.670;2023-03-04T01:29:26;100824.91;;;4.00;80.94
41712;BME280;27399;51.516;13.670;2023-03-04T01:31:52;100824.28;;;4.10;80.95
41712;BME280;27399;51.516;13.670;2023-03-04T01:34:17;100828.50;;;4.03;80.33
41712;BME280;27399;51.516;13.670;2023-03-04T01:36:43;100816.13;;;4.01;80.90
41712;BME280;27399;51.516;13.670;2023-03-04T01:39:08;100815.53;;;4.13;80.52
41712;BME280;27399;51.516;13.670;2023-03-04T01:41:34;100811.66;;;3.98;80.74
41712;BME280;27399;51.516;13.670;2023-03-04T01:44:00;100799.56;;;4.07;80.68
41712;BME280;27399;51.516;13.670;2023-03-04T01:46:28;100804.09;;;3.76;81.18
41712;BME280;27399;51.516;13.670;2023-03-04T01:48:54;100800.84;;;3.87;81.79
41712;BME280;27399;51.516;13.670;2023-03-04T01:51:20;100797.38;;;3.90;81.08
41712;BME280;27399;51.516;13.670;2023-03-04T01:53:48;100803.63;;;3.94;81.61
41712;BME280;27399;51.516;13.670;2023-03-04T01:56:33;100800.56;;;3.77;81.75
41712;BME280;27399;51.516;13.670;2023-03-04T02:01:38;100789.38;;;3.87;81.38
41712;BME280;27399;51.516;13.670;2023-03-04T02:04:05;100793.06;;;3.94;81.24
41712;BME280;27399;51.516;13.670;2023-03-04T02:06:33;100790.00;;;4.12;80.91
41712;BME280;27399;51.516;13.670;2023-03-04T02:08:58;100783.44;;;3.94;81.10
41712;BME280;27399;51.516;13.670;2023-03-04T02:11:24;100786.81;;;3.90;80.88
41712;BME280;27399;51.516;13.670;2023-03-04T02:13:51;100776.66;;;4.06;81.18
41712;BME280;27399;51.516;13.670;2023-03-04T02:16:16;100783.22;;;3.86;81.34
41712;BME280;27399;51.516;13.670;2023-03-04T02:18:42;100778.56;;;4.13;80.76
41712;BME280;27399;51.516;13.670;2023-03-04T02:23:38;100774.19;;;4.13;80.75
41712;BME280;27399;51.516;13.670;2023-03-04T02:26:15;100784.59;;;3.70;81.09
41712;BME280;27399;51.516;13.670;2023-03-04T02:28:42;100775.91;;;4.11;80.78
41712;BME280;27399;51.516;13.670;2023-03-04T02:31:48;100774.34;;;4.19;80.82
41712;BME280;27399;51.516;13.670;2023-03-04T02:34:23;100766.13;;;4.07;81.47
41712;BME280;27399;51.516;13.670;2023-03-04T02:36:51;100761.59;;;4.01;81.31
41712;BME280;27399;51.516;13.670;2023-03-04T02:41:46;100751.75;;;3.94;81.13
41712;BME280;27399;51.516;13.670;2023-03-04T02:44:21;100757.13;;;3.99;81.14
41712;BME280;27399;51.516;13.670;2023-03-04T02:46:47;100761.63;;;4.03;81.31
41712;BME280;27399;51.516;13.670;2023-03-04T02:49:13;100749.16;;;3.96;81.32
41712;BME280;27399;51.516;13.670;2023-03-04T02:51:39;100756.41;;;4.06;80.67
41712;BME280;27399;51.516;13.670;2023-03-04T02:54:18;100753.06;;;4.13;80.75
41712;BME280;27399;51.516;13.670;2023-03-04T02:56:48;100756.22;;;3.97;81.32
41712;BME280;27399;51.516;13.670;2023-03-04T02:59:14;100761.91;;;4.15;81.33
41712;BME280;27399;51.516;13.670;2023-03-04T03:01:40;100749.44;;;4.08;81.27
41712;BME280;27399;51.516;13.670;2023-03-04T03:04:06;100742.66;;;4.19;81.66
41712;BME280;27399;51.516;13.670;2023-03-04T03:06:31;100752.84;;;4.04;81.76
41712;BME280;27399;51.516;13.670;2023-03-04T03:08:57;100745.94;;;4.09;81.36
41712;BME280;27399;51.516;13.670;2023-03-04T03:11:22;100749.72;;;4.21;81.01
41712;BME280;27399;51.516;13.670;2023-03-04T03:13:48;100747.84;;;4.16;80.99
41712;BME280;27399;51.516;13.670;2023-03-04T03:16:14;100747.03;;;4.19;81.40
41712;BME280;27399;51.516;13.670;2023-03-04T03:18:39;100738.91;;;4.10;81.81
41712;BME280;27399;51.516;13.670;2023-03-04T03:21:05;100738.34;;;4.23;80.62
41712;BME280;27399;51.516;13.670;2023-03-04T03:23:32;100749.66;;;4.17;81.05
41712;BME280;27399;51.516;13.670;2023-03-04T03:25:57;100740.88;;;4.18;81.13
41712;BME280;27399;51.516;13.670;2023-03-04T03:28:23;100743.88;;;3.96;80.89
41712;BME280;27399;51.516;13.670;2023-03-04T03:30:49;100745.53;;;3.91;81.54
41712;BME280;27399;51.516;13.670;2023-03-04T03:33:14;100748.41;;;4.01;81.36
41712;BME280;27399;51.516;13.670;2023-03-04T03:35:40;100749.72;;;4.21;80.61
41712;BME280;27399;51.516;13.670;2023-03-04T03:38:05;100746.59;;;3.99;81.04
41712;BME280;27399;51.516;13.670;2023-03-04T03:40:31;100744.28;;;4.14;80.25
41712;BME280;27399;51.516;13.670;2023-03-04T03:42:57;100745.84;;;4.05;80.69
41712;BME280;27399;51.516;13.670;2023-03-04T03:45:22;100745.88;;;4.06;80.96
41712;BME280;27399;51.516;13.670;2023-03-04T03:47:48;100742.94;;;3.94;80.76
41712;BME280;27399;51.516;13.670;2023-03-04T03:50:14;100752.81;;;4.02;81.50
41712;BME280;27399;51.516;13.670;2023-03-04T03:52:39;100745.44;;;3.87;80.71
41712;BME280;27399;51.516;13.670;2023-03-04T03:55:05;100747.34;;;3.95;81.27
41712;BME280;27399;51.516;13.670;2023-03-04T03:57:31;100751.25;;;4.11;80.27
41712;BME280;27399;51.516;13.670;2023-03-04T03:59:57;100742.44;;;4.10;81.26
41712;BME280;27399;51.516;13.670;2023-03-04T04:02:22;100747.44;;;3.98;81.08
41712;BME280;27399;51.516;13.670;2023-03-04T04:04:48;100739.72;;;4.06;80.29
41712;BME280;27399;51.516;13.670;2023-03-04T04:07:13;100734.63;;;4.15;80.30
41712;BME280;27399;51.516;13.670;2023-03-04T04:09:39;100746.50;;;3.96;80.49
41712;BME280;27399;51.516;13.670;2023-03-04T04:12:06;100741.84;;;4.24;80.11
41712;BME280;27399;51.516;13.670;2023-03-04T04:14:32;100733.53;;;4.05;80.34
41712;BME280;27399;51.516;13.670;2023-03-04T04:16:58;100735.78;;;4.28;80.08
41712;BME280;27399;51.516;13.670;2023-03-04T04:19:23;100730.50;;;4.28;79.54
41712;BME280;27399;51.516;13.670;2023-03-04T04:21:49;100735.09;;;3.97;79.96
41712;BME280;27399;51.516;13.670;2023-03-04T04:24:15;100733.69;;;4.13;80.34
41712;BME280;27399;51.516;13.670;2023-03-04T04:26:41;100719.94;;;4.28;80.02
41712;BME280;27399;51.516;13.670;2023-03-04T04:29:08;100725.09;;;4.22;79.90
41712;BME280;27399;51.516;13.670;2023-03-04T04:31:34;100720.97;;;4.34;80.14
41712;BME280;27399;51.516;13.670;2023-03-04T04:34:00;100715.69;;;4.34;79.78
41712;BME280;27399;51.516;13.670;2023-03-04T04:36:26;100720.34;;;4.46;79.97
41712;BME280;27399;51.516;13.670;2023-03-04T04:38:52;100702.16;;;4.19;79.61
41712;BME280;27399;51.516;13.670;2023-03-04T04:41:21;100714.78;;;4.34;80.24
41712;BME280;27399;51.516;13.670;2023-03-04T04:43:47;100712.69;;;4.60;79.60
41712;BME280;27399;51.516;13.670;2023-03-04T04:46:14;100711.72;;;4.54;79.50
41712;BME280;27399;51.516;13.670;2023-03-04T04:48:40;100711.75;;;4.57;79.49
41712;BME280;27399;51.516;13.670;2023-03-04T04:51:06;100703.16;;;4.24;80.12
41712;BME280;27399;51.516;13.670;2023-03-04T04:53:32;100704.50;;;4.46;80.07
41712;BME280;27399;51.516;13.670;2023-03-04T04:55:58;100704.53;;;4.48;79.80
41712;BME280;27399;51.516;13.670;2023-03-04T04:58:23;100701.72;;;4.39;80.00
41712;BME280;27399;51.516;13.670;2023-03-04T05:00:49;100692.97;;;4.01;80.95
41712;BME280;27399;51.516;13.670;2023-03-04T05:03:15;100695.78;;;4.09;81.37
41712;BME280;27399;51.516;13.670;2023-03-04T05:05:41;100691.63;;;4.21;81.12
41712;BME280;27399;51.516;13.670;2023-03-04T05:08:06;100694.19;;;4.17;81.48
41712;BME280;27399;51.516;13.670;2023-03-04T05:10:32;100685.81;;;4.37;80.46
41712;BME280;27399;51.516;13.670;2023-03-04T05:12:58;100688.34;;;4.31;80.87
41712;BME280;27399;51.516;13.670;2023-03-04T05:15:23;100683.09;;;4.34;81.02
41712;BME280;27399;51.516;13.670;2023-03-04T05:17:49;100684.56;;;4.19;81.64
41712;BME280;27399;51.516;13.670;2023-03-04T05:20:15;100685.53;;;4.25;81.71
41712;BME280;27399;51.516;13.670;2023-03-04T05:22:40;100689.69;;;4.13;81.93
41712;BME280;27399;51.516;13.670;2023-03-04T05:25:06;100685.06;;;4.01;82.35
41712;BME280;27399;51.516;13.670;2023-03-04T05:27:32;100682.97;;;4.26;82.00
41712;BME280;27399;51.516;13.670;2023-03-04T05:29:58;100680.25;;;4.25;81.92
41712;BME280;27399;51.516;13.670;2023-03-04T05:32:27;100676.94;;;3.94;82.38
41712;BME280;27399;51.516;13.670;2023-03-04T05:34:52;100674.84;;;4.17;82.63
41712;BME280;27399;51.516;13.670;2023-03-04T05:37:18;100667.06;;;4.25;82.56
41712;BME280;27399;51.516;13.670;2023-03-04T05:39:43;100661.66;;;4.18;82.44
41712;BME280;27399;51.516;13.670;2023-03-04T05:42:09;100669.00;;;4.32;82.29
41712;BME280;27399;51.516;13.670;2023-03-04T05:44:35;100670.72;;;4.31;82.03
41712;BME280;27399;51.516;13.670;2023-03-04T05:47:00;100667.69;;;4.13;82.78
41712;BME280;27399;51.516;13.670;2023-03-04T05:49:26;100664.56;;;4.31;83.07
41712;BME280;27399;51.516;13.670;2023-03-04T05:51:51;100664.03;;;4.06;83.24
41712;BME280;27399;51.516;13.670;2023-03-04T05:54:17;100657.25;;;4.19;82.83
41712;BME280;27399;51.516;13.670;2023-03-04T05:56:43;100662.88;;;4.33;82.47
41712;BME280;27399;51.516;13.670;2023-03-04T05:59:09;100665.78;;;4.47;83.25
41712;BME280;27399;51.516;13.670;2023-03-04T06:01:35;100664.75;;;4.39;82.84
41712;BME280;27399;51.516;13.670;2023-03-04T06:04:00;100667.16;;;4.29;83.19
41712;BME280;27399;51.516;13.670;2023-03-04T06:06:26;100663.06;;;4.42;83.01
41712;BME280;27399;51.516;13.670;2023-03-04T06:08:51;100655.97;;;4.41;83.15
41712;BME280;27399;51.516;13.670;2023-03-04T06:11:17;100655.81;;;4.32;82.95
41712;BME280;27399;51.516;13.670;2023-03-04T06:13:43;100657.91;;;4.50;83.06
41712;BME280;27399;51.516;13.670;2023-03-04T06:16:08;100663.09;;;4.45;83.12
41712;BME280;27399;51.516;13.670;2023-03-04T06:18:34;100656.06;;;4.46;83.73
41712;BME280;27399;51.516;13.670;2023-03-04T06:21:01;100664.50;;;4.28;83.59
41712;BME280;27399;51.516;13.670;2023-03-04T06:23:28;100670.38;;;4.57;83.88
41712;BME280;27399;51.516;13.670;2023-03-04T06:25:56;100668.28;;;4.41;83.94
41712;BME280;27399;51.516;13.670;2023-03-04T06:28:22;100671.53;;;4.72;82.85
41712;BME280;27399;51.516;13.670;2023-03-04T06:30:51;100680.28;;;4.68;83.19
41712;BME280;27399;51.516;13.670;2023-03-04T06:33:17;100652.00;;;4.62;83.62
41712;BME280;27399;51.516;13.670;2023-03-04T06:35:43;100670.66;;;4.71;83.34
41712;BME280;27399;51.516;13.670;2023-03-04T06:38:08;100677.31;;;4.52;84.38
41712;BME280;27399;51.516;13.670;2023-03-04T06:40:34;100676.44;;;4.52;84.34
41712;BME280;27399;51.516;13.670;2023-03-04T06:43:00;100676.78;;;4.69;83.89
41712;BME280;27399;51.516;13.670;2023-03-04T06:45:25;100677.59;;;4.22;85.11
41712;BME280;27399;51.516;13.670;2023-03-04T06:47:51;100680.22;;;4.66;84.89
41712;BME280;27399;51.516;13.670;2023-03-04T06:50:17;100669.19;;;4.41;85.82
41712;BME280;27399;51.516;13.670;2023-03-04T06:52:42;100675.94;;;4.70;84.63
41712;BME280;27399;51.516;13.670;2023-03-04T06:55:08;100678.19;;;4.51;85.25
41712;BME280;27399;51.516;13.670;2023-03-04T06:57:34;100670.91;;;4.41;85.12
41712;BME280;27399;51.516;13.670;2023-03-04T07:00:00;100671.00;;;4.44;85.45
41712;BME280;27399;51.516;13.670;2023-03-04T07:02:27;100672.00;;;4.50;85.91
41712;BME280;27399;51.516;13.670;2023-03-04T07:04:53;100669.38;;;4.50;86.28
41712;BME280;27399;51.516;13.670;2023-03-04T07:07:19;100667.00;;;4.64;85.86
41712;BME280;27399;51.516;13.670;2023-03-04T07:09:44;100676.09;;;4.79;85.82
41712;BME280;27399;51.516;13.670;2023-03-04T07:12:10;100674.25;;;4.75;86.31
41712;BME280;27399;51.516;13.670;2023-03-04T07:14:35;100676.78;;;4.69;86.31
41712;BME280;27399;51.516;13.670;2023-03-04T07:17:01;100672.22;;;4.61;86.76
41712;BME280;27399;51.516;13.670;2023-03-04T07:19:27;100670.38;;;4.57;86.65
41712;BME280;27399;51.516;13.670;2023-03-04T07:21:52;100675.94;;;4.70;86.41
41712;BME280;27399;51.516;13.670;2023-03-04T07:24:18;100663.59;;;4.72;85.90
41712;BME280;27399;51.516;13.670;2023-03-04T07:26:44;100662.72;;;4.70;86.21
41712;BME280;27399;51.516;13.670;2023-03-04T07:29:09;100667.69;;;4.56;87.34
41712;BME280;27399;51.516;13.670;2023-03-04T07:31:36;100666.41;;;4.79;87.04
41712;BME280;27399;51.516;13.670;2023-03-04T07:34:07;100665.53;;;4.80;86.84
41712;BME280;27399;51.516;13.670;2023-03-04T07:36:35;100680.88;;;4.54;87.15
41712;BME280;27399;51.516;13.670;2023-03-04T07:39:01;100676.00;;;4.74;87.38
41712;BME280;27399;51.516;13.670;2023-03-04T07:41:28;100671.06;;;4.91;86.99
41712;BME280;27399;51.516;13.670;2023-03-04T07:43:57;100670.44;;;4.60;88.16
41712;BME280;27399;51.516;13.670;2023-03-04T07:46:24;100674.16;;;4.70;88.04
41712;BME280;27399;51.516;13.670;2023-03-04T07:48:49;100671.28;;;4.58;87.85
41712;BME280;27399;51.516;13.670;2023-03-04T07:51:17;100666.50;;;4.84;87.65
41712;BME280;27399;51.516;13.670;2023-03-04T07:53:45;100674.75;;;4.57;88.47
41712;BME280;27399;51.516;13.670;2023-03-04T07:56:14;100657.50;;;4.74;88.50
41712;BME280;27399;51.516;13.670;2023-03-04T07:58:40;100659.16;;;4.68;89.08
41712;BME280;27399;51.516;13.670;2023-03-04T08:01:14;100645.19;;;4.76;88.54
41712;BME280;27399;51.516;13.670;2023-03-04T08:03:40;100665.72;;;4.90;88.97
41712;BME280;27399;51.516;13.670;2023-03-04T08:06:07;100650.63;;;4.37;90.03
41712;BME280;27399;51.516;13.670;2023-03-04T08:08:33;100661.25;;;4.86;89.51
41712;BME280;27399;51.516;13.670;2023-03-04T08:11:02;100649.66;;;4.79;89.53
41712;BME280;27399;51.516;13.670;2023-03-04T08:13:28;100656.41;;;4.63;90.74
41712;BME280;27399;51.516;13.670;2023-03-04T08:15:55;100654.34;;;4.94;90.14
41712;BME280;27399;51.516;13.670;2023-03-04T08:18:20;100658.66;;;4.89;90.54
41712;BME280;27399;51.516;13.670;2023-03-04T08:20:46;100653.66;;;5.04;90.09
41712;BME280;27399;51.516;13.670;2023-03-04T08:23:12;100648.38;;;5.06;90.33
41712;BME280;27399;51.516;13.670;2023-03-04T08:25:39;100657.75;;;4.87;91.03
41712;BME280;27399;51.516;13.670;2023-03-04T08:28:06;100628.69;;;4.87;90.42
41712;BME280;27399;51.516;13.670;2023-03-04T08:30:32;100657.69;;;4.84;90.86
41712;BME280;27399;51.516;13.670;2023-03-04T08:32:58;100650.09;;;5.04;91.04
41712;BME280;27399;51.516;13.670;2023-03-04T08:35:23;100647.50;;;5.05;91.43
41712;BME280;27399;51.516;13.670;2023-03-04T08:37:49;100652.25;;;5.25;89.81
41712;BME280;27399;51.516;13.670;2023-03-04T08:40:15;100644.09;;;5.14;90.75
41712;BME280;27399;51.516;13.670;2023-03-04T08:42:40;100651.16;;;5.12;90.98
41712;BME280;27399;51.516;13.670;2023-03-04T08:45:07;100642.34;;;5.13;90.67
41712;BME280;27399;51.516;13.670;2023-03-04T08:47:33;100642.47;;;5.21;91.43
41712;BME280;27399;51.516;13.670;2023-03-04T08:49:59;100651.22;;;5.17;91.10
41712;BME280;27399;51.516;13.670;2023-03-04T08:52:24;100643.38;;;5.21;91.24
41712;BME280;27399;51.516;13.670;2023-03-04T08:54:50;100641.47;;;5.14;90.72
41712;BME280;27399;51.516;13.670;2023-03-04T08:57:16;100643.06;;;5.04;91.10
41712;BME280;27399;51.516;13.670;2023-03-04T08:59:41;100645.34;;;5.35;90.91
41712;BME280;27399;51.516;13.670;2023-03-04T09:02:08;100640.94;;;5.35;91.19
41712;BME280;27399;51.516;13.670;2023-03-04T09:04:34;100641.00;;;5.38;90.95
41712;BME280;27399;51.516;13.670;2023-03-04T09:07:00;100642.28;;;5.10;92.30
41712;BME280;27399;51.516;13.670;2023-03-04T09:09:26;100638.22;;;5.29;91.12
41712;BME280;27399;51.516;13.670;2023-03-04T09:11:52;100641.97;;;5.43;90.88
41712;BME280;27399;51.516;13.670;2023-03-04T09:14:17;100642.94;;;5.49;91.45
41712;BME280;27399;51.516;13.670;2023-03-04T09:16:43;100626.59;;;5.21;91.80
41712;BME280;27399;51.516;13.670;2023-03-04T09:19:09;100643.03;;;5.55;91.66
41712;BME280;27399;51.516;13.670;2023-03-04T09:21:35;100635.72;;;5.38;92.29
41712;BME280;27399;51.516;13.670;2023-03-04T09:24:00;100637.44;;;5.36;92.54
41712;BME280;27399;51.516;13.670;2023-03-04T09:26:27;100634.75;;;5.35;92.97
41712;BME280;27399;51.516;13.670;2023-03-04T09:28:58;100634.81;;;5.36;91.93
41712;BME280;27399;51.516;13.670;2023-03-04T09:31:24;100632.09;;;5.33;92.84
41712;BME280;27399;51.516;13.670;2023-03-04T09:33:51;100635.59;;;5.32;92.05
41712;BME280;27399;51.516;13.670;2023-03-04T09:36:17;100634.28;;;5.59;92.40
41712;BME280;27399;51.516;13.670;2023-03-04T09:38:42;100625.78;;;5.25;92.29
41712;BME280;27399;51.516;13.670;2023-03-04T09:41:20;100629.53;;;5.38;93.52
41712;BME280;27399;51.516;13.670;2023-03-04T09:43:47;100618.53;;;5.70;92.84
41712;BME280;27399;51.516;13.670;2023-03-04T09:46:17;100630.84;;;5.66;92.80
41712;BME280;27399;51.516;13.670;2023-03-04T09:48:49;100627.22;;;5.61;93.58
41712;BME280;27399;51.516;13.670;2023-03-04T09:51:19;100626.44;;;5.67;92.76
41712;BME280;27399;51.516;13.670;2023-03-04T09:56:34;100620.50;;;5.82;91.15
41712;BME280;27399;51.516;13.670;2023-03-04T09:59:28;100616.03;;;5.79;91.85
41712;BME280;27399;51.516;13.670;2023-03-04T10:02:06;100618.72;;;5.82;91.98
41712;BME280;27399;51.516;13.670;2023-03-04T10:04:50;100619.72;;;5.90;91.64
41712;BME280;27399;51.516;13.670;2023-03-04T10:07:25;100610.66;;;5.73;92.19
41712;BME280;27399;51.516;13.670;2023-03-04T10:10:00;100598.13;;;5.61;91.82
41712;BME280;27399;51.516;13.670;2023-03-04T10:12:29;100613.50;;;5.87;92.43
41712;BME280;27399;51.516;13.670;2023-03-04T10:15:20;100609.91;;;5.82;93.23
41712;BME280;27399;51.516;13.670;2023-03-04T10:17:49;100597.53;;;5.81;92.01
41712;BME280;27399;51.516;13.670;2023-03-04T10:20:21;100605.88;;;6.10;90.93
41712;BME280;27399;51.516;13.670;2023-03-04T10:22:49;100605.69;;;5.96;91.53
41712;BME280;27399;51.516;13.670;2023-03-04T10:25:22;100601.41;;;6.04;91.29
41712;BME280;27399;51.516;13.670;2023-03-04T10:27:57;100607.25;;;5.82;92.51
41712;BME280;27399;51.516;13.670;2023-03-04T10:30:45;100596.16;;;6.06;92.27
41712;BME280;27399;51.516;13.670;2023-03-04T10:33:18;100598.63;;;5.97;93.01
41712;BME280;27399;51.516;13.670;2023-03-04T10:36:04;100597.88;;;6.05;92.17
41712;BME280;27399;51.516;13.670;2023-03-04T10:38:37;100576.78;;;6.12;91.67
41712;BME280;27399;51.516;13.670;2023-03-04T10:43:40;100591.00;;;6.18;91.43
41712;BME280;27399;51.516;13.670;2023-03-04T10:46:10;100590.84;;;6.08;92.82
41712;BME280;27399;51.516;13.670;2023-03-04T10:48:39;100587.41;;;6.15;92.38
41712;BME280;27399;51.516;13.670;2023-03-04T10:51:19;100587.53;;;6.24;91.68
41712;BME280;27399;51.516;13.670;2023-03-04T10:53:46;100584.03;;;6.28;91.94
41712;BME280;27399;51.516;13.670;2023-03-04T10:56:35;100576.19;;;6.34;90.60
41712;BME280;27399;51.516;13.670;2023-03-04T11:02:21;100571.56;;;6.18;91.03
41712;BME280;27399;51.516;13.670;2023-03-04T11:05:23;100582.09;;;6.12;91.09
41712;BME280;27399;51.516;13.670;2023-03-04T11:07:54;100574.41;;;6.35;91.53
41712;BME280;27399;51.516;13.670;2023-03-04T11:13:13;100573.59;;;6.41;91.21
41712;BME280;27399;51.516;13.670;2023-03-04T11:15:59;100581.63;;;6.48;89.86
41712;BME280;27399;51.516;13.670;2023-03-04T11:18:46;100579.13;;;6.62;89.28
41712;BME280;27399;51.516;13.670;2023-03-04T11:21:26;100585.22;;;6.55;91.65
41712;BME280;27399;51.516;13.670;2023-03-04T11:24:00;100566.81;;;6.71;90.06
41712;BME280;27399;51.516;13.670;2023-03-04T11:31:35;100576.41;;;6.58;89.62
41712;BME280;27399;51.516;13.670;2023-03-04T11:37:20;100572.06;;;6.66;87.72
41712;BME280;27399;51.516;13.670;2023-03-04T11:39:51;100566.66;;;6.52;88.50
41712;BME280;27399;51.516;13.670;2023-03-04T11:42:44;100572.81;;;6.51;89.11
41712;BME280;27399;51.516;13.670;2023-03-04T11:45:15;100557.88;;;6.59;88.88
41712;BME280;27399;51.516;13.670;2023-03-04T11:51:03;100553.69;;;6.83;87.82
41712;BME280;27399;51.516;13.670;2023-03-04T12:16:30;100537.09;;;7.06;85.70
41712;BME280;27399;51.516;13.670;2023-03-04T12:22:24;100528.34;;;7.21;86.05
41712;BME280;27399;51.516;13.670;2023-03-04T12:30:50;100524.63;;;6.98;88.24
41712;BME280;27399;51.516;13.670;2023-03-04T12:44:22;100502.69;;;7.18;87.88
41712;BME280;27399;51.516;13.670;2023-03-04T12:52:16;100507.28;;;7.47;87.46
41712;BME280;27399;51.516;13.670;2023-03-04T12:54:55;100517.75;;;7.19;87.75
41712;BME280;27399;51.516;13.670;2023-03-04T12:57:26;100506.22;;;7.17;89.44
41712;BME280;27399;51.516;13.670;2023-03-04T13:02:41;100508.72;;;6.95;88.98
41712;BME280;27399;51.516;13.670;2023-03-04T13:05:35;100499.97;;;7.07;88.78
41712;BME280;27399;51.516;13.670;2023-03-04T13:11:01;100498.28;;;7.23;88.92
41712;BME280;27399;51.516;13.670;2023-03-04T13:13:36;100504.31;;;6.97;89.07
41712;BME280;27399;51.516;13.670;2023-03-04T13:16:05;100503.47;;;7.06;87.89
41712;BME280;27399;51.516;13.670;2023-03-04T13:18:33;100504.34;;;7.05;88.17
41712;BME280;27399;51.516;13.670;2023-03-04T13:21:14;100504.22;;;6.85;87.71
41712;BME280;27399;51.516;13.670;2023-03-04T13:23:41;100504.38;;;7.08;88.24
41712;BME280;27399;51.516;13.670;2023-03-04T13:26:22;100496.31;;;6.91;85.18
41712;BME280;27399;51.516;13.670;2023-03-04T13:29:38;100503.50;;;7.08;85.55
41712;BME280;27399;51.516;13.670;2023-03-04T13:34:42;100501.69;;;7.01;84.45
41712;BME280;27399;51.516;13.670;2023-03-04T13:37:28;100503.41;;;6.98;82.80
41712;BME280;27399;51.516;13.670;2023-03-04T13:42:45;100495.53;;;7.03;83.65
41712;BME280;27399;51.516;13.670;2023-03-04T13:47:57;100493.75;;;7.05;80.97
41712;BME280;27399;51.516;13.670;2023-03-04T13:50:28;100508.88;;;7.17;82.09
41712;BME280;27399;51.516;13.670;2023-03-04T13:53:05;100493.81;;;7.14;79.78
41712;BME280;27399;51.516;13.670;2023-03-04T13:55:44;100493.88;;;7.22;79.19
41712;BME280;27399;51.516;13.670;2023-03-04T13:58:26;100490.38;;;7.33;79.03
41712;BME280;27399;51.516;13.670;2023-03-04T14:00:54;100492.84;;;7.02;78.25
41712;BME280;27399;51.516;13.670;2023-03-04T14:03:28;100497.41;;;7.18;79.44
41712;BME280;27399;51.516;13.670;2023-03-04T14:06:15;100488.50;;;7.13;77.16
41712;BME280;27399;51.516;13.670;2023-03-04T14:08:42;100493.81;;;7.14;76.69
41712;BME280;27399;51.516;13.670;2023-03-04T14:13:54;100495.56;;;7.09;78.28
41712;BME280;27399;51.516;13.670;2023-03-04T14:16:25;100498.16;;;7.02;78.52
41712;BME280;27399;51.516;13.670;2023-03-04T14:19:03;100492.00;;;7.06;78.61
41712;BME280;27399;51.516;13.670;2023-03-04T14:21:30;100496.38;;;7.01;77.34
41712;BME280;27399;51.516;13.670;2023-03-04T14:24:22;100492.94;;;7.14;77.56
41712;BME280;27399;51.516;13.670;2023-03-04T14:26:49;100495.63;;;7.19;76.61
41712;BME280;27399;51.516;13.670;2023-03-04T14:29:32;100491.19;;;7.16;78.61
41712;BME280;27399;51.516;13.670;2023-03-04T14:31:58;100495.66;;;7.22;78.92
41712;BME280;27399;51.516;13.670;2023-03-04T14:34:29;100494.81;;;7.34;76.96